createdAt,value
2022-08-04T00:00:28.521Z,101020.81
2022-08-04T00:03:19.542Z,101021.69
2022-08-04T00:05:46.709Z,101016.25
2022-08-04T00:08:23.077Z,101029.88
2022-08-04T00:10:53.790Z,101027.16
2022-08-04T00:13:24.741Z,101025.25
2022-08-04T00:15:57.786Z,101026.09
2022-08-04T00:18:29.999Z,101031.56
2022-08-04T00:21:07.177Z,101028.84
2022-08-04T00:24:11.919Z,101023.38
2022-08-04T00:26:23.737Z,101020.66
2022-08-04T00:28:53.433Z,101017.94
2022-08-04T00:31:54.092Z,101025.06
2022-08-04T00:34:12.940Z,101023.19
2022-08-04T00:36:41.015Z,101016.91
2022-08-04T00:39:11.485Z,101020.66
2022-08-04T00:41:42.433Z,101022.34
2022-08-04T00:44:42.682Z,101037.00
2022-08-04T00:47:12.932Z,101026.94
2022-08-04T00:49:49.033Z,101027.78
2022-08-04T00:52:32.014Z,101019.63
2022-08-04T00:55:01.725Z,101031.34
2022-08-04T00:57:36.073Z,101033.22
2022-08-04T01:00:15.316Z,101030.31
2022-08-04T01:02:45.274Z,101033.22
2022-08-04T01:05:25.334Z,101025.06
2022-08-04T01:07:55.504Z,101027.59
2022-08-04T01:10:22.555Z,101029.47
2022-08-04T01:13:14.984Z,101029.47
2022-08-04T01:15:59.263Z,101023.19
2022-08-04T01:18:27.804Z,101019.63
2022-08-04T01:21:13.494Z,101023.19
2022-08-04T01:23:40.557Z,101029.47
2022-08-04T01:26:44.161Z,101026.75
2022-08-04T01:29:09.642Z,101018.56
2022-08-04T01:31:36.764Z,101017.56
2022-08-04T01:34:05.833Z,101014.16
2022-08-04T01:36:36.248Z,101021.31
2022-08-04T01:39:23.950Z,101019.41
2022-08-04T01:41:57.758Z,101025.75
2022-08-04T01:44:27.734Z,101020.28
2022-08-04T01:46:55.010Z,101023.00
2022-08-04T01:49:24.971Z,101019.41
2022-08-04T01:51:52.701Z,101018.56
2022-08-04T01:54:20.111Z,101019.41
2022-08-04T01:56:47.748Z,101019.41
2022-08-04T01:59:15.871Z,101019.41
2022-08-04T02:01:43.073Z,101021.13
2022-08-04T02:04:23.395Z,101026.59
2022-08-04T02:07:03.685Z,101027.59
2022-08-04T02:09:54.597Z,101025.75
2022-08-04T02:12:27.334Z,101021.13
2022-08-04T02:15:11.062Z,101024.69
2022-08-04T02:17:50.889Z,101032.88
2022-08-04T02:20:24.073Z,101032.88
2022-08-04T02:23:01.576Z,101026.59
2022-08-04T02:25:32.811Z,101031.00
2022-08-04T02:28:08.917Z,101027.41
2022-08-04T02:30:57.624Z,101027.41
2022-08-04T02:33:32.325Z,101022.81
2022-08-04T02:36:02.231Z,101022.81
2022-08-04T02:38:39.089Z,101027.41
2022-08-04T02:41:07.718Z,101027.41
2022-08-04T02:43:50.305Z,101027.41
2022-08-04T02:46:20.525Z,101028.25
2022-08-04T02:48:48.479Z,101021.13
2022-08-04T02:51:17.049Z,101019.25
2022-08-04T02:53:45.344Z,101028.25
2022-08-04T02:56:18.334Z,101028.25
2022-08-04T02:58:46.787Z,101022.81
2022-08-04T03:01:13.853Z,101020.09
2022-08-04T03:04:13.155Z,101022.81
2022-08-04T03:07:03.597Z,101020.94
2022-08-04T03:09:48.847Z,101022.81
2022-08-04T03:12:34.462Z,101021.97
2022-08-04T03:15:17.535Z,101022.81
2022-08-04T03:17:53.267Z,101015.50
2022-08-04T03:20:37.628Z,101019.06
2022-08-04T03:23:24.694Z,101023.66
2022-08-04T03:26:13.361Z,101020.94
2022-08-04T03:28:43.238Z,101018.22
2022-08-04T03:31:29.143Z,101019.25
2022-08-04T03:34:03.400Z,101023.66
2022-08-04T03:36:33.192Z,101018.22
2022-08-04T03:39:03.296Z,101024.50
2022-08-04T03:42:04.244Z,101015.50
2022-08-04T03:44:50.758Z,101020.94
2022-08-04T03:47:28.449Z,101018.22
2022-08-04T03:50:14.223Z,101021.97
2022-08-04T03:53:11.367Z,101020.94
2022-08-04T03:55:41.270Z,101021.78
2022-08-04T03:58:34.142Z,101020.94
2022-08-04T04:01:07.508Z,101024.50
2022-08-04T04:03:56.435Z,101020.94
2022-08-04T04:06:41.427Z,101025.34
2022-08-04T04:09:40.167Z,101026.38
2022-08-04T04:12:36.691Z,101027.22
2022-08-04T04:15:03.817Z,101023.66
2022-08-04T04:17:31.191Z,101032.66
2022-08-04T04:20:08.480Z,101024.50
2022-08-04T04:22:53.838Z,101029.09
2022-08-04T04:25:42.212Z,101032.66
2022-08-04T04:28:44.692Z,101026.38
2022-08-04T04:31:20.778Z,101038.13
2022-08-04T04:33:57.039Z,101038.97
2022-08-04T04:36:24.112Z,101046.28
2022-08-04T04:38:54.337Z,101036.22
2022-08-04T04:41:30.303Z,101046.28
2022-08-04T04:44:15.880Z,101049.00
2022-08-04T04:46:43.009Z,101051.72
2022-08-04T04:49:10.087Z,101044.41
2022-08-04T04:51:58.165Z,101047.13
2022-08-04T04:54:38.666Z,101052.56
2022-08-04T04:57:15.209Z,101055.28
2022-08-04T04:59:50.296Z,101047.13
2022-08-04T05:02:20.184Z,101052.56
2022-08-04T05:07:50.377Z,101046.28
2022-08-04T05:10:23.440Z,101056.34
2022-08-04T05:14:37.281Z,101053.41
2022-08-04T05:16:00.187Z,101049.00
2022-08-04T05:18:28.150Z,101051.72
2022-08-04T05:21:27.531Z,101057.19
2022-08-04T05:23:56.809Z,101051.72
2022-08-04T05:26:26.093Z,101052.56
2022-08-04T05:28:56.061Z,101052.56
2022-08-04T05:31:28.371Z,101047.13
2022-08-04T05:34:21.626Z,101053.41
2022-08-04T05:36:50.955Z,101058.88
2022-08-04T05:39:34.499Z,101053.41
2022-08-04T05:42:04.672Z,101047.97
2022-08-04T05:44:33.341Z,101044.41
2022-08-04T05:47:01.153Z,101054.47
2022-08-04T05:49:28.817Z,101058.03
2022-08-04T05:51:57.085Z,101055.28
2022-08-04T05:54:24.739Z,101057.19
2022-08-04T05:56:53.761Z,101060.75
2022-08-04T05:59:21.476Z,101053.41
2022-08-04T06:01:55.405Z,101060.75
2022-08-04T06:04:31.424Z,101053.41
2022-08-04T06:06:58.547Z,101058.03
2022-08-04T06:09:25.715Z,101052.56
2022-08-04T06:12:00.516Z,101051.72
2022-08-04T06:14:42.360Z,101050.69
2022-08-04T06:18:32.224Z,101058.88
2022-08-04T06:20:20.338Z,101061.59
2022-08-04T06:22:50.622Z,101056.13
2022-08-04T06:25:20.654Z,101057.00
2022-08-04T06:27:48.650Z,101051.56
2022-08-04T06:30:16.348Z,101058.69
2022-08-04T06:33:10.345Z,101062.47
2022-08-04T06:35:37.641Z,101058.88
2022-08-04T06:38:05.123Z,101059.75
2022-08-04T06:40:34.211Z,101056.13
2022-08-04T06:43:03.208Z,101053.41
2022-08-04T06:45:31.207Z,101065.19
2022-08-04T06:47:58.455Z,101059.75
2022-08-04T06:51:28.745Z,101050.69
2022-08-04T06:53:13.711Z,101055.13
2022-08-04T06:55:41.397Z,101053.41
2022-08-04T06:58:09.861Z,101057.66
2022-08-04T07:00:37.978Z,101051.56
2022-08-04T07:03:05.612Z,101055.13
2022-08-04T07:05:32.928Z,101048.84
2022-08-04T07:08:00.694Z,101053.25
2022-08-04T07:10:28.378Z,101052.41
2022-08-04T07:12:56.784Z,101050.53
2022-08-04T07:15:24.606Z,101046.97
2022-08-04T07:17:52.790Z,101054.28
2022-08-04T07:20:30.349Z,101044.22
2022-08-04T07:23:06.419Z,101044.22
2022-08-04T07:25:58.744Z,101055.97
2022-08-04T07:28:22.478Z,101050.53
2022-08-04T07:30:50.098Z,101042.34
2022-08-04T07:33:18.280Z,101041.50
2022-08-04T07:36:10.066Z,101045.91
2022-08-04T07:38:33.226Z,101047.81
2022-08-04T07:41:01.430Z,101045.06
2022-08-04T07:43:28.698Z,101045.06
2022-08-04T07:45:55.852Z,101048.63
2022-08-04T07:48:24.430Z,101040.47
2022-08-04T07:50:51.811Z,101050.53
2022-08-04T07:53:55.195Z,101049.47
2022-08-04T07:56:06.271Z,101041.31
2022-08-04T07:58:33.644Z,101052.22
2022-08-04T08:01:00.862Z,101046.75
2022-08-04T08:03:28.172Z,101045.72
2022-08-04T08:06:30.917Z,101038.59
2022-08-04T08:08:42.705Z,101039.44
2022-08-04T08:11:10.796Z,101036.72
2022-08-04T08:13:37.941Z,101040.28
2022-08-04T08:16:05.405Z,101037.53
2022-08-04T08:18:32.619Z,101034.81
2022-08-04T08:21:00.077Z,101027.50
2022-08-04T08:23:30.407Z,101026.66
2022-08-04T08:25:58.168Z,101028.38
2022-08-04T08:28:25.331Z,101034.66
2022-08-04T08:30:52.781Z,101031.09
2022-08-04T08:33:20.726Z,101028.38
2022-08-04T08:35:54.427Z,101034.66
2022-08-04T08:38:27.458Z,101027.31
2022-08-04T08:40:58.821Z,101031.09
2022-08-04T08:44:04.876Z,101030.06
2022-08-04T08:46:17.442Z,101025.44
2022-08-04T08:48:54.476Z,101018.31
2022-08-04T08:51:36.205Z,101030.06
2022-08-04T08:54:12.472Z,101023.75
2022-08-04T08:56:47.194Z,101019.16
2022-08-04T08:59:52.618Z,101023.75
2022-08-04T09:02:19.642Z,101027.13
2022-08-04T09:05:12.863Z,101025.25
2022-08-04T09:07:48.645Z,101027.97
2022-08-04T09:10:19.108Z,101023.34
2022-08-04T09:13:01.442Z,101024.41
2022-08-04T09:15:39.826Z,101025.25
2022-08-04T09:18:18.649Z,101019.63
2022-08-04T09:20:48.126Z,101018.78
2022-08-04T09:23:15.200Z,101019.78
2022-08-04T09:25:51.409Z,101010.78
2022-08-04T09:28:51.666Z,101017.91
2022-08-04T09:31:15.306Z,101012.47
2022-08-04T09:33:48.001Z,101017.91
2022-08-04T09:36:25.837Z,101016.91
2022-08-04T09:39:12.213Z,101014.19
2022-08-04T09:41:49.376Z,101006.84
2022-08-04T09:44:49.905Z,101003.28
2022-08-04T09:47:19.772Z,101006.84
2022-08-04T09:49:59.219Z,101010.41
2022-08-04T09:52:44.752Z,101004.13
2022-08-04T09:55:24.681Z,101001.41
2022-08-04T09:57:51.780Z,101012.09
2022-08-04T10:00:20.768Z,101003.09
2022-08-04T10:03:12.127Z,100994.06
2022-08-04T10:05:50.204Z,100989.47
2022-08-04T10:08:17.465Z,100984.84
2022-08-04T10:11:04.060Z,100994.91
2022-08-04T10:13:42.422Z,100985.69
2022-08-04T10:16:15.642Z,100980.25
2022-08-04T10:18:51.102Z,100978.56
2022-08-04T10:21:24.508Z,100982.97
2022-08-04T10:24:10.164Z,100975.66
2022-08-04T10:26:45.839Z,100968.50
2022-08-04T10:29:15.077Z,100969.34
2022-08-04T10:31:49.383Z,100971.06
2022-08-04T10:34:22.010Z,100971.91
2022-08-04T10:36:49.039Z,100965.63
2022-08-04T10:39:42.306Z,100971.91
2022-08-04T10:42:19.433Z,100971.06
2022-08-04T10:44:50.743Z,100963.75
2022-08-04T10:47:22.386Z,100959.13
2022-08-04T10:49:56.438Z,100959.13
2022-08-04T10:52:43.459Z,100956.41
2022-08-04T10:55:10.629Z,100952.63
2022-08-04T10:57:46.852Z,100953.69
2022-08-04T11:00:19.766Z,100950.13
2022-08-04T11:02:52.642Z,100946.34
2022-08-04T11:05:44.169Z,100948.22
2022-08-04T11:08:17.578Z,100947.19
2022-08-04T11:10:51.625Z,100939.00
2022-08-04T11:13:22.929Z,100941.75
2022-08-04T11:16:00.621Z,100935.44
2022-08-04T11:18:31.251Z,100947.19
2022-08-04T11:20:58.324Z,100936.28
2022-08-04T11:23:28.833Z,100939.00
2022-08-04T11:26:01.699Z,100931.69
2022-08-04T11:28:38.227Z,100935.25
2022-08-04T11:31:05.644Z,100930.84
2022-08-04T11:33:51.584Z,100931.69
2022-08-04T11:36:18.666Z,100931.69
2022-08-04T11:39:04.687Z,100926.25
2022-08-04T11:41:45.651Z,100927.06
2022-08-04T11:44:44.957Z,100921.63
2022-08-04T11:47:21.091Z,100910.72
2022-08-04T11:49:56.496Z,100915.16
2022-08-04T11:52:26.602Z,100912.44
2022-08-04T11:54:54.773Z,100908.00
2022-08-04T11:57:23.131Z,100912.44
2022-08-04T12:00:07.783Z,100910.56
2022-08-04T12:02:54.073Z,100913.28
2022-08-04T12:05:35.941Z,100910.56
2022-08-04T12:08:10.891Z,100915.16
2022-08-04T12:10:49.935Z,100904.28
2022-08-04T12:13:40.641Z,100910.56
2022-08-04T12:16:16.730Z,100907.00
2022-08-04T12:19:01.593Z,100896.94
2022-08-04T12:21:36.337Z,100900.50
2022-08-04T12:24:16.545Z,100895.91
2022-08-04T12:26:49.411Z,100892.34
2022-08-04T12:29:18.627Z,100893.19
2022-08-04T12:31:48.504Z,100886.88
2022-08-04T12:34:18.660Z,100897.78
2022-08-04T12:36:45.724Z,100893.19
2022-08-04T12:39:16.024Z,100896.75
2022-08-04T12:41:52.268Z,100890.44
2022-08-04T12:44:36.550Z,100884.16
2022-08-04T12:47:27.841Z,100885.00
2022-08-04T12:50:00.889Z,100882.28
2022-08-04T12:55:18.368Z,100883.13
2022-08-04T12:57:46.984Z,100878.50
2022-08-04T13:00:26.205Z,100872.22
2022-08-04T13:02:59.327Z,100872.22
2022-08-04T13:05:28.188Z,100872.22
2022-08-04T13:07:56.569Z,100864.88
2022-08-04T13:10:30.119Z,100862.16
2022-08-04T13:13:00.923Z,100859.44
2022-08-04T13:15:28.534Z,100858.59
2022-08-04T13:18:05.973Z,100864.88
2022-08-04T13:20:43.913Z,100862.16
2022-08-04T13:23:13.706Z,100863.00
2022-08-04T13:26:43.250Z,100859.25
2022-08-04T13:28:31.702Z,100857.56
2022-08-04T13:31:06.247Z,100851.09
2022-08-04T13:33:36.375Z,100842.06
2022-08-04T13:36:04.980Z,100846.47
2022-08-04T13:38:50.215Z,100846.66
2022-08-04T13:41:18.959Z,100838.31
2022-08-04T13:44:19.218Z,100833.88
2022-08-04T13:46:38.051Z,100827.41
2022-08-04T13:49:28.242Z,100826.56
2022-08-04T13:51:59.058Z,100820.09
2022-08-04T13:54:30.408Z,100821.13
2022-08-04T13:57:00.646Z,100829.09
2022-08-04T13:59:33.601Z,100816.53
2022-08-04T14:02:03.881Z,100821.13
2022-08-04T14:04:34.711Z,100819.25
2022-08-04T14:07:01.859Z,100819.03
2022-08-04T14:09:35.126Z,100811.91
2022-08-04T14:12:38.798Z,100816.31
2022-08-04T14:15:00.281Z,100811.91
2022-08-04T14:17:30.379Z,100808.13
2022-08-04T14:20:02.040Z,100815.47
2022-08-04T14:22:29.223Z,100813.59
2022-08-04T14:25:00.678Z,100805.41
2022-08-04T14:27:41.301Z,100799.97
2022-08-04T14:30:27.903Z,100803.53
2022-08-04T14:32:56.377Z,100798.06
2022-08-04T14:35:26.531Z,100797.25
2022-08-04T14:38:13.254Z,100797.25
2022-08-04T14:40:41.824Z,100797.91
2022-08-04T14:43:09.752Z,100792.63
2022-08-04T14:45:54.080Z,100788.03
2022-08-04T14:48:23.243Z,100788.88
2022-08-04T14:50:51.004Z,100792.47
2022-08-04T14:53:22.500Z,100793.47
2022-08-04T14:55:51.131Z,100791.59
2022-08-04T14:58:36.947Z,100788.88
2022-08-04T15:01:11.750Z,100782.56
2022-08-04T15:03:50.449Z,100779.84
2022-08-04T15:06:26.559Z,100772.50
2022-08-04T15:08:54.704Z,100779.69
2022-08-04T15:11:24.303Z,100778.84
2022-08-04T15:13:52.647Z,100768.78
2022-08-04T15:16:20.653Z,100768.78
2022-08-04T15:18:49.174Z,100767.94
2022-08-04T15:21:17.474Z,100765.22
2022-08-04T15:23:44.677Z,100760.59
2022-08-04T15:26:30.649Z,100768.56
2022-08-04T15:29:00.765Z,100754.94
2022-08-04T15:32:06.198Z,100759.56
2022-08-04T15:34:16.001Z,100763.13
2022-08-04T15:36:57.110Z,100759.56
2022-08-04T15:39:24.622Z,100755.78
2022-08-04T15:42:16.149Z,100757.66
2022-08-04T15:44:58.428Z,100748.66
2022-08-04T15:47:26.822Z,100753.91
2022-08-04T15:50:08.626Z,100749.50
2022-08-04T15:53:00.665Z,100759.34
2022-08-04T15:55:35.721Z,100751.19
2022-08-04T15:58:07.685Z,100750.34
2022-08-04T16:00:50.846Z,100752.88
2022-08-04T16:03:58.366Z,100748.44
2022-08-04T16:06:23.771Z,100742.00
2022-08-04T16:09:00.517Z,100735.69
2022-08-04T16:11:32.465Z,100740.28
2022-08-04T16:14:01.957Z,100739.25
2022-08-04T16:16:46.621Z,100740.09
2022-08-04T16:19:35.489Z,100740.09
2022-08-04T16:22:03.964Z,100731.09
2022-08-04T16:24:35.785Z,100729.19
2022-08-04T16:27:04.059Z,100726.47
2022-08-04T16:29:31.187Z,100732.75
2022-08-04T16:32:04.273Z,100724.59
2022-08-04T16:34:55.594Z,100730.03
2022-08-04T16:37:24.399Z,100730.88
2022-08-04T16:40:11.378Z,100732.75
2022-08-04T16:42:38.533Z,100731.72
2022-08-04T16:45:08.388Z,100721.88
2022-08-04T16:47:47.687Z,100726.28
2022-08-04T16:50:19.653Z,100726.28
2022-08-04T16:52:48.295Z,100731.72
2022-08-04T16:55:16.116Z,100719.97
2022-08-04T16:57:46.663Z,100729.00
2022-08-04T17:00:14.665Z,100725.44
2022-08-04T17:03:02.966Z,100723.53
2022-08-04T17:05:39.447Z,100718.94
2022-08-04T17:10:57.519Z,100722.50
2022-08-04T17:14:02.376Z,100721.66
2022-08-04T17:16:22.640Z,100722.50
2022-08-04T17:18:50.918Z,100723.38
2022-08-04T17:21:28.573Z,100731.53
2022-08-04T17:24:14.514Z,100732.38
2022-08-04T17:26:45.593Z,100726.94
2022-08-04T17:29:22.788Z,100726.94
2022-08-04T17:32:13.517Z,100735.09
2022-08-04T17:34:40.563Z,100730.50
2022-08-04T17:37:37.861Z,100728.59
2022-08-04T17:40:05.885Z,100726.94
2022-08-04T17:42:39.203Z,100731.34
2022-08-04T17:45:48.762Z,100731.34
2022-08-04T17:47:56.397Z,100734.06
2022-08-04T17:50:25.460Z,100739.50
2022-08-04T17:53:02.723Z,100742.03
2022-08-04T17:55:41.441Z,100744.13
2022-08-04T17:58:20.953Z,100737.63
2022-08-04T18:01:22.513Z,100743.06
2022-08-04T18:03:44.859Z,100740.34
2022-08-04T18:06:22.092Z,100737.63
2022-08-04T18:08:57.478Z,100738.47
2022-08-04T18:11:29.651Z,100747.69
2022-08-04T18:14:10.312Z,100745.78
2022-08-04T18:16:44.732Z,100749.34
2022-08-04T18:19:12.947Z,100751.03
2022-08-04T18:21:46.997Z,100742.84
2022-08-04T18:24:34.482Z,100748.31
2022-08-04T18:27:16.326Z,100748.31
2022-08-04T18:29:50.188Z,100760.09
2022-08-04T18:32:33.123Z,100751.03
2022-08-04T18:35:05.005Z,100755.47
2022-08-04T18:38:05.054Z,100746.47
2022-08-04T18:40:26.462Z,100755.47
2022-08-04T18:42:59.984Z,100760.09
2022-08-04T18:45:33.892Z,100756.31
2022-08-04T18:48:14.083Z,100760.91
2022-08-04T18:51:03.060Z,100760.72
2022-08-04T18:53:35.412Z,100759.03
2022-08-04T18:56:19.948Z,100766.38
2022-08-04T18:58:53.723Z,100767.22
2022-08-04T19:01:21.357Z,100769.94
2022-08-04T19:03:58.860Z,100769.09
2022-08-04T19:06:27.510Z,100779.78
2022-08-04T19:08:54.698Z,100775.38
2022-08-04T19:11:38.671Z,100777.91
2022-08-04T19:14:13.283Z,100786.06
2022-08-04T19:16:46.024Z,100789.63
2022-08-04T19:19:15.255Z,100803.47
2022-08-04T19:22:00.537Z,100804.09
2022-08-04T19:27:16.331Z,100801.38
2022-08-04T19:29:44.303Z,100812.28
2022-08-04T19:32:16.040Z,100812.28
2022-08-04T19:34:46.472Z,100818.59
2022-08-04T19:37:58.230Z,100823.19
2022-08-04T19:40:04.615Z,100819.63
2022-08-04T19:42:31.997Z,100825.91
2022-08-04T19:44:59.337Z,100835.97
2022-08-04T19:48:11.177Z,100837.66
2022-08-04T19:50:15.061Z,100840.41
2022-08-04T19:52:51.351Z,100843.97
2022-08-04T19:55:19.965Z,100849.41
2022-08-04T19:57:50.543Z,100852.13
2022-08-04T20:00:33.079Z,100853.16
2022-08-04T20:05:55.118Z,100854.88
2022-08-04T20:08:31.713Z,100851.09
2022-08-04T20:11:00.038Z,100855.69
2022-08-04T20:13:37.323Z,100855.69
2022-08-04T20:16:26.219Z,100857.59
2022-08-04T20:18:57.089Z,100857.59
2022-08-04T20:21:53.686Z,100862.00
2022-08-04T20:24:38.265Z,100856.53
2022-08-04T20:27:07.662Z,100859.25
2022-08-04T20:30:16.348Z,100862.00
2022-08-04T20:32:52.710Z,100861.16
2022-08-04T20:35:28.494Z,100866.41
2022-08-04T20:38:00.011Z,100861.16
2022-08-04T20:40:29.837Z,100857.38
2022-08-04T20:42:57.662Z,100860.94
2022-08-04T20:45:57.247Z,100862.84
2022-08-04T20:48:12.668Z,100864.72
2022-08-04T20:50:40.151Z,100862.84
2022-08-04T20:53:16.732Z,100863.66
2022-08-04T20:55:55.161Z,100865.56
2022-08-04T21:01:11.172Z,100862.84
2022-08-04T21:04:00.971Z,100867.22
2022-08-04T21:06:28.112Z,100863.66
2022-08-04T21:11:44.594Z,100857.38
2022-08-04T21:14:14.441Z,100863.66
2022-08-04T21:16:55.782Z,100860.94
2022-08-04T21:19:24.611Z,100864.50
2022-08-04T21:21:54.153Z,100866.41
2022-08-04T21:24:26.064Z,100868.94
2022-08-04T21:26:56.557Z,100873.53
2022-08-04T21:29:34.861Z,100875.41
2022-08-04T21:32:04.649Z,100871.66
2022-08-04T21:34:39.606Z,100876.25
2022-08-04T21:37:11.327Z,100879.84
2022-08-04T21:39:58.842Z,100878.97
2022-08-04T21:42:28.861Z,100871.66
2022-08-04T21:44:57.672Z,100876.25
2022-08-04T21:47:24.764Z,100874.41
2022-08-04T21:49:56.230Z,100882.38
2022-08-04T21:52:24.732Z,100883.41
2022-08-04T21:57:42.047Z,100881.53
2022-08-04T22:00:10.989Z,100877.97
2022-08-04T22:02:46.929Z,100872.50
2022-08-04T22:05:21.557Z,100872.50
2022-08-04T22:07:50.935Z,100877.97
2022-08-04T22:10:32.252Z,100872.50
2022-08-04T22:13:06.771Z,100877.13
2022-08-04T22:16:03.628Z,100877.13
2022-08-04T22:18:24.624Z,100879.63
2022-08-04T22:20:54.915Z,100876.91
2022-08-04T22:23:25.207Z,100877.97
2022-08-04T22:25:55.491Z,100876.06
2022-08-04T22:28:25.409Z,100867.91
2022-08-04T22:30:55.847Z,100874.19
2022-08-04T22:33:23.176Z,100874.19
2022-08-04T22:35:50.331Z,100882.38
2022-08-04T22:38:23.967Z,100869.56
2022-08-04T22:41:00.264Z,100881.31
2022-08-04T22:43:32.856Z,100868.75
2022-08-04T22:46:03.982Z,100876.91
2022-08-04T22:48:32.431Z,100875.03
2022-08-04T22:51:00.510Z,100869.56
2022-08-04T22:53:27.842Z,100873.16
2022-08-04T22:56:07.693Z,100876.72
2022-08-04T22:58:45.455Z,100875.03
2022-08-04T23:01:18.715Z,100869.56
2022-08-04T23:03:50.988Z,100874.19
2022-08-04T23:06:24.751Z,100875.88
2022-08-04T23:09:00.596Z,100872.31
2022-08-04T23:11:34.554Z,100873.16
2022-08-04T23:14:04.179Z,100868.53
2022-08-04T23:16:31.762Z,100877.53
2022-08-04T23:19:00.131Z,100878.59
2022-08-04T23:21:40.864Z,100881.31
2022-08-04T23:24:08.419Z,100882.16
2022-08-04T23:26:36.713Z,100886.78
2022-08-04T23:29:03.958Z,100887.59
2022-08-04T23:31:40.453Z,100884.88
2022-08-04T23:34:09.007Z,100881.31
2022-08-04T23:36:36.189Z,100881.31
2022-08-04T23:39:05.846Z,100877.75
2022-08-04T23:41:54.534Z,100884.88
2022-08-04T23:44:25.601Z,100883.19
2022-08-04T23:46:57.461Z,100875.88
2022-08-04T23:49:25.222Z,100873.00
2022-08-04T23:52:10.311Z,100877.53
2022-08-04T23:54:51.035Z,100877.53
2022-08-04T23:57:19.177Z,100873.97
2022-08-04T23:59:52.247Z,100873.97
